NCAR-RAP Real-Time Weather Data

Output produced by METARs form (18 December 2014  14:21 UTC)
found at http://weather.rap.ucar.edu/surface/
 
Conditions at: KLOU observed 18 December 2014  13:53 UTC
Temperature: -1.1°C (30°F)
Dewpoint: -5.6°C (22°F) [RH = 71%]
Pressure (altimeter): 30.30 inches Hg (1026.2 mb)
[Sea-level pressure: 1026.5 mb]
Winds: from the N (10 degrees) at 5 MPH (4 knots; 2.1 m/s)
Visibility: 8 miles (13 km)
Ceiling: 1800 feet AGL
Clouds: overcast cloud deck at 1800 feet AGL
Present Weather: no significant weather observed at this time
KLOU 181353Z 01004KT 8SM OVC018 M01/M06 A3030 RMK AO2 SLP265 T10111056